sensor_id;sensor_type;location;lat;lon;timestamp;P1;durP1;ratioP1;P2;durP2;ratioP2
22166;SDS011;11249;52.468;13.776;2022-12-07T00:01:31;6.55;;;5.50;;
22166;SDS011;11249;52.468;13.776;2022-12-07T00:04:00;7.32;;;5.57;;
22166;SDS011;11249;52.468;13.776;2022-12-07T00:06:38;8.02;;;5.85;;
22166;SDS011;11249;52.468;13.776;2022-12-07T00:09:08;7.93;;;5.20;;
22166;SDS011;11249;52.468;13.776;2022-12-07T00:11:37;9.68;;;6.18;;
22166;SDS011;11249;52.468;13.776;2022-12-07T00:14:06;12.23;;;7.55;;
22166;SDS011;11249;52.468;13.776;2022-12-07T00:16:36;14.88;;;10.18;;
22166;SDS011;11249;52.468;13.776;2022-12-07T00:19:03;20.92;;;11.98;;
22166;SDS011;11249;52.468;13.776;2022-12-07T00:21:31;22.60;;;12.25;;
22166;SDS011;11249;52.468;13.776;2022-12-07T00:24:00;25.55;;;14.02;;
22166;SDS011;11249;52.468;13.776;2022-12-07T00:26:32;21.85;;;12.13;;
22166;SDS011;11249;52.468;13.776;2022-12-07T00:29:09;25.92;;;13.90;;
22166;SDS011;11249;52.468;13.776;2022-12-07T00:31:45;30.88;;;15.95;;
22166;SDS011;11249;52.468;13.776;2022-12-07T00:34:14;24.75;;;14.38;;
22166;SDS011;11249;52.468;13.776;2022-12-07T00:36:43;28.58;;;16.00;;
22166;SDS011;11249;52.468;13.776;2022-12-07T00:39:10;25.23;;;14.30;;
22166;SDS011;11249;52.468;13.776;2022-12-07T00:41:36;24.63;;;14.40;;
22166;SDS011;11249;52.468;13.776;2022-12-07T00:44:03;28.17;;;14.95;;
22166;SDS011;11249;52.468;13.776;2022-12-07T00:46:30;26.60;;;13.75;;
22166;SDS011;11249;52.468;13.776;2022-12-07T00:48:57;30.25;;;14.32;;
22166;SDS011;11249;52.468;13.776;2022-12-07T00:51:24;28.00;;;13.98;;
22166;SDS011;11249;52.468;13.776;2022-12-07T00:53:52;30.48;;;14.93;;
22166;SDS011;11249;52.468;13.776;2022-12-07T00:56:26;29.13;;;15.77;;
22166;SDS011;11249;52.468;13.776;2022-12-07T00:58:54;26.65;;;13.15;;
22166;SDS011;11249;52.468;13.776;2022-12-07T01:01:23;28.67;;;13.90;;
22166;SDS011;11249;52.468;13.776;2022-12-07T01:03:50;25.83;;;14.35;;
22166;SDS011;11249;52.468;13.776;2022-12-07T01:06:18;25.73;;;13.38;;
22166;SDS011;11249;52.468;13.776;2022-12-07T01:08:46;25.42;;;13.30;;
22166;SDS011;11249;52.468;13.776;2022-12-07T01:11:15;21.27;;;11.77;;
22166;SDS011;11249;52.468;13.776;2022-12-07T01:13:43;22.08;;;11.88;;
22166;SDS011;11249;52.468;13.776;2022-12-07T01:16:11;19.52;;;11.90;;
22166;SDS011;11249;52.468;13.776;2022-12-07T01:18:39;21.97;;;12.33;;
22166;SDS011;11249;52.468;13.776;2022-12-07T01:21:09;20.52;;;11.55;;
22166;SDS011;11249;52.468;13.776;2022-12-07T01:23:38;21.08;;;12.20;;
22166;SDS011;11249;52.468;13.776;2022-12-07T01:26:07;18.52;;;11.70;;
22166;SDS011;11249;52.468;13.776;2022-12-07T01:28:37;17.80;;;11.60;;
22166;SDS011;11249;52.468;13.776;2022-12-07T01:31:06;21.58;;;11.80;;
22166;SDS011;11249;52.468;13.776;2022-12-07T01:33:38;18.48;;;12.20;;
22166;SDS011;11249;52.468;13.776;2022-12-07T01:36:12;17.23;;;11.15;;
22166;SDS011;11249;52.468;13.776;2022-12-07T01:38:48;18.55;;;11.93;;
22166;SDS011;11249;52.468;13.776;2022-12-07T01:41:18;19.55;;;11.57;;
22166;SDS011;11249;52.468;13.776;2022-12-07T01:46:34;21.77;;;12.00;;
22166;SDS011;11249;52.468;13.776;2022-12-07T01:49:01;18.80;;;11.63;;
22166;SDS011;11249;52.468;13.776;2022-12-07T01:51:31;18.50;;;11.52;;
22166;SDS011;11249;52.468;13.776;2022-12-07T01:53:58;19.88;;;11.50;;
22166;SDS011;11249;52.468;13.776;2022-12-07T01:56:26;18.88;;;11.98;;
22166;SDS011;11249;52.468;13.776;2022-12-07T01:58:54;16.10;;;10.35;;
22166;SDS011;11249;52.468;13.776;2022-12-07T02:01:23;16.13;;;11.57;;
22166;SDS011;11249;52.468;13.776;2022-12-07T02:03:50;16.45;;;11.07;;
22166;SDS011;11249;52.468;13.776;2022-12-07T02:06:18;15.98;;;10.88;;
22166;SDS011;11249;52.468;13.776;2022-12-07T02:08:48;15.00;;;10.27;;
22166;SDS011;11249;52.468;13.776;2022-12-07T02:11:15;15.98;;;10.38;;
22166;SDS011;11249;52.468;13.776;2022-12-07T02:13:42;18.77;;;11.10;;
22166;SDS011;11249;52.468;13.776;2022-12-07T02:18:57;17.08;;;10.98;;
22166;SDS011;11249;52.468;13.776;2022-12-07T02:21:40;15.75;;;10.52;;
22166;SDS011;11249;52.468;13.776;2022-12-07T02:24:31;16.48;;;10.50;;
22166;SDS011;11249;52.468;13.776;2022-12-07T02:30:10;16.10;;;11.07;;
22166;SDS011;11249;52.468;13.776;2022-12-07T02:35:28;16.05;;;10.18;;
22166;SDS011;11249;52.468;13.776;2022-12-07T02:40:38;14.52;;;9.43;;
22166;SDS011;11249;52.468;13.776;2022-12-07T02:43:30;12.68;;;8.70;;
22166;SDS011;11249;52.468;13.776;2022-12-07T02:46:02;14.07;;;9.38;;
22166;SDS011;11249;52.468;13.776;2022-12-07T02:48:32;14.00;;;9.02;;
22166;SDS011;11249;52.468;13.776;2022-12-07T02:51:00;15.23;;;9.65;;
22166;SDS011;11249;52.468;13.776;2022-12-07T02:56:16;13.48;;;8.85;;
22166;SDS011;11249;52.468;13.776;2022-12-07T03:01:45;12.88;;;8.57;;
22166;SDS011;11249;52.468;13.776;2022-12-07T03:07:31;12.65;;;8.35;;
22166;SDS011;11249;52.468;13.776;2022-12-07T03:13:02;10.77;;;8.25;;
22166;SDS011;11249;52.468;13.776;2022-12-07T03:18:13;15.30;;;9.65;;
22166;SDS011;11249;52.468;13.776;2022-12-07T03:20:42;16.15;;;9.27;;
22166;SDS011;11249;52.468;13.776;2022-12-07T03:23:12;14.48;;;9.50;;
22166;SDS011;11249;52.468;13.776;2022-12-07T03:25:45;12.60;;;8.57;;
22166;SDS011;11249;52.468;13.776;2022-12-07T03:28:16;14.88;;;9.35;;
22166;SDS011;11249;52.468;13.776;2022-12-07T03:30:49;13.25;;;9.05;;
22166;SDS011;11249;52.468;13.776;2022-12-07T03:33:22;13.10;;;8.50;;
22166;SDS011;11249;52.468;13.776;2022-12-07T03:36:01;13.52;;;9.38;;
22166;SDS011;11249;52.468;13.776;2022-12-07T03:38:53;12.07;;;8.07;;
22166;SDS011;11249;52.468;13.776;2022-12-07T03:41:45;13.52;;;8.90;;
22166;SDS011;11249;52.468;13.776;2022-12-07T03:44:12;13.77;;;8.40;;
22166;SDS011;11249;52.468;13.776;2022-12-07T03:50:00;13.57;;;8.35;;
22166;SDS011;11249;52.468;13.776;2022-12-07T03:52:17;10.98;;;8.05;;
22166;SDS011;11249;52.468;13.776;2022-12-07T03:55:18;11.15;;;8.25;;
22166;SDS011;11249;52.468;13.776;2022-12-07T03:57:58;11.48;;;7.80;;
22166;SDS011;11249;52.468;13.776;2022-12-07T04:00:28;13.52;;;8.80;;
22166;SDS011;11249;52.468;13.776;2022-12-07T04:02:55;12.60;;;9.07;;
22166;SDS011;11249;52.468;13.776;2022-12-07T04:05:22;12.75;;;8.95;;
22166;SDS011;11249;52.468;13.776;2022-12-07T04:07:49;12.75;;;8.77;;
22166;SDS011;11249;52.468;13.776;2022-12-07T04:10:16;13.27;;;8.68;;
22166;SDS011;11249;52.468;13.776;2022-12-07T04:12:43;16.13;;;8.95;;
22166;SDS011;11249;52.468;13.776;2022-12-07T04:15:10;13.80;;;8.80;;
22166;SDS011;11249;52.468;13.776;2022-12-07T04:17:37;14.27;;;9.27;;
22166;SDS011;11249;52.468;13.776;2022-12-07T04:20:04;16.58;;;10.05;;
22166;SDS011;11249;52.468;13.776;2022-12-07T04:22:32;16.42;;;9.48;;
22166;SDS011;11249;52.468;13.776;2022-12-07T04:24:58;18.55;;;10.52;;
22166;SDS011;11249;52.468;13.776;2022-12-07T04:27:25;18.17;;;10.20;;
22166;SDS011;11249;52.468;13.776;2022-12-07T04:29:52;15.23;;;10.98;;
22166;SDS011;11249;52.468;13.776;2022-12-07T04:32:18;21.05;;;11.50;;
22166;SDS011;11249;52.468;13.776;2022-12-07T04:34:45;16.02;;;9.82;;
22166;SDS011;11249;52.468;13.776;2022-12-07T04:37:16;16.65;;;10.95;;
22166;SDS011;11249;52.468;13.776;2022-12-07T04:42:44;19.00;;;11.75;;
22166;SDS011;11249;52.468;13.776;2022-12-07T04:45:11;18.85;;;11.43;;
22166;SDS011;11249;52.468;13.776;2022-12-07T04:47:37;21.35;;;12.63;;
22166;SDS011;11249;52.468;13.776;2022-12-07T04:50:04;20.38;;;12.50;;
22166;SDS011;11249;52.468;13.776;2022-12-07T04:52:32;22.75;;;13.60;;
22166;SDS011;11249;52.468;13.776;2022-12-07T04:54:58;21.10;;;12.35;;
22166;SDS011;11249;52.468;13.776;2022-12-07T04:57:25;23.15;;;12.25;;
22166;SDS011;11249;52.468;13.776;2022-12-07T04:59:52;22.33;;;12.65;;
22166;SDS011;11249;52.468;13.776;2022-12-07T05:02:18;22.40;;;12.77;;
22166;SDS011;11249;52.468;13.776;2022-12-07T05:04:45;23.52;;;13.40;;
22166;SDS011;11249;52.468;13.776;2022-12-07T05:07:11;25.70;;;14.35;;
22166;SDS011;11249;52.468;13.776;2022-12-07T05:09:38;22.80;;;13.68;;
22166;SDS011;11249;52.468;13.776;2022-12-07T05:12:05;24.58;;;14.07;;
22166;SDS011;11249;52.468;13.776;2022-12-07T05:14:31;30.05;;;16.35;;
22166;SDS011;11249;52.468;13.776;2022-12-07T05:16:58;27.65;;;15.38;;
22166;SDS011;11249;52.468;13.776;2022-12-07T05:19:25;26.30;;;15.85;;
22166;SDS011;11249;52.468;13.776;2022-12-07T05:21:52;28.13;;;16.30;;
22166;SDS011;11249;52.468;13.776;2022-12-07T05:24:19;28.20;;;15.70;;
22166;SDS011;11249;52.468;13.776;2022-12-07T05:26:46;25.63;;;15.73;;
22166;SDS011;11249;52.468;13.776;2022-12-07T05:29:13;31.77;;;17.10;;
22166;SDS011;11249;52.468;13.776;2022-12-07T05:31:41;32.88;;;15.68;;
22166;SDS011;11249;52.468;13.776;2022-12-07T05:34:09;29.63;;;16.48;;
22166;SDS011;11249;52.468;13.776;2022-12-07T05:36:36;35.55;;;18.45;;
22166;SDS011;11249;52.468;13.776;2022-12-07T05:39:03;33.53;;;18.10;;
22166;SDS011;11249;52.468;13.776;2022-12-07T05:41:29;36.38;;;18.10;;
22166;SDS011;11249;52.468;13.776;2022-12-07T05:44:15;34.50;;;17.75;;
22166;SDS011;11249;52.468;13.776;2022-12-07T05:46:42;35.15;;;19.08;;
22166;SDS011;11249;52.468;13.776;2022-12-07T05:49:08;33.95;;;18.70;;
22166;SDS011;11249;52.468;13.776;2022-12-07T05:51:35;33.65;;;18.35;;
22166;SDS011;11249;52.468;13.776;2022-12-07T05:54:02;35.00;;;19.85;;
22166;SDS011;11249;52.468;13.776;2022-12-07T05:56:29;36.22;;;18.67;;
22166;SDS011;11249;52.468;13.776;2022-12-07T05:58:55;37.25;;;18.25;;
22166;SDS011;11249;52.468;13.776;2022-12-07T06:01:41;36.75;;;19.17;;
22166;SDS011;11249;52.468;13.776;2022-12-07T06:04:08;37.75;;;19.35;;
22166;SDS011;11249;52.468;13.776;2022-12-07T06:06:34;41.63;;;21.05;;
22166;SDS011;11249;52.468;13.776;2022-12-07T06:09:02;39.45;;;19.73;;
22166;SDS011;11249;52.468;13.776;2022-12-07T06:11:29;42.17;;;22.15;;
22166;SDS011;11249;52.468;13.776;2022-12-07T06:14:14;43.72;;;20.27;;
22166;SDS011;11249;52.468;13.776;2022-12-07T06:16:41;43.25;;;22.02;;
22166;SDS011;11249;52.468;13.776;2022-12-07T06:19:08;51.03;;;23.65;;
22166;SDS011;11249;52.468;13.776;2022-12-07T06:21:35;49.22;;;22.45;;
22166;SDS011;11249;52.468;13.776;2022-12-07T06:24:01;50.05;;;24.85;;
22166;SDS011;11249;52.468;13.776;2022-12-07T06:26:28;51.90;;;24.63;;
22166;SDS011;11249;52.468;13.776;2022-12-07T06:28:55;54.05;;;25.65;;
22166;SDS011;11249;52.468;13.776;2022-12-07T06:31:22;61.10;;;26.52;;
22166;SDS011;11249;52.468;13.776;2022-12-07T06:33:49;60.17;;;27.05;;
22166;SDS011;11249;52.468;13.776;2022-12-07T06:36:15;62.28;;;27.45;;
22166;SDS011;11249;52.468;13.776;2022-12-07T06:38:42;58.65;;;27.38;;
22166;SDS011;11249;52.468;13.776;2022-12-07T06:41:08;69.78;;;29.33;;
22166;SDS011;11249;52.468;13.776;2022-12-07T06:43:35;56.38;;;26.75;;
22166;SDS011;11249;52.468;13.776;2022-12-07T06:46:02;61.58;;;27.40;;
22166;SDS011;11249;52.468;13.776;2022-12-07T06:48:29;63.47;;;28.80;;
22166;SDS011;11249;52.468;13.776;2022-12-07T06:50:55;62.65;;;28.35;;
22166;SDS011;11249;52.468;13.776;2022-12-07T06:53:22;61.03;;;27.30;;
22166;SDS011;11249;52.468;13.776;2022-12-07T06:55:49;63.95;;;27.10;;
22166;SDS011;11249;52.468;13.776;2022-12-07T06:58:15;61.45;;;27.38;;
22166;SDS011;11249;52.468;13.776;2022-12-07T07:00:43;57.33;;;28.00;;
22166;SDS011;11249;52.468;13.776;2022-12-07T07:03:11;54.42;;;27.00;;
22166;SDS011;11249;52.468;13.776;2022-12-07T07:05:38;54.92;;;27.15;;
22166;SDS011;11249;52.468;13.776;2022-12-07T07:08:04;53.45;;;25.75;;
22166;SDS011;11249;52.468;13.776;2022-12-07T07:10:48;52.67;;;26.25;;
22166;SDS011;11249;52.468;13.776;2022-12-07T07:13:15;57.15;;;26.85;;
22166;SDS011;11249;52.468;13.776;2022-12-07T07:15:41;56.30;;;26.13;;
22166;SDS011;11249;52.468;13.776;2022-12-07T07:18:08;56.25;;;26.40;;
22166;SDS011;11249;52.468;13.776;2022-12-07T07:20:35;58.80;;;27.88;;
22166;SDS011;11249;52.468;13.776;2022-12-07T07:23:03;58.78;;;26.83;;
22166;SDS011;11249;52.468;13.776;2022-12-07T07:25:31;61.40;;;27.23;;
22166;SDS011;11249;52.468;13.776;2022-12-07T07:27:58;54.92;;;26.67;;
22166;SDS011;11249;52.468;13.776;2022-12-07T07:30:25;57.25;;;27.13;;
22166;SDS011;11249;52.468;13.776;2022-12-07T07:32:56;56.63;;;27.52;;
22166;SDS011;11249;52.468;13.776;2022-12-07T07:35:25;61.40;;;27.70;;
22166;SDS011;11249;52.468;13.776;2022-12-07T07:37:52;59.45;;;28.58;;
22166;SDS011;11249;52.468;13.776;2022-12-07T07:40:19;61.83;;;28.60;;
22166;SDS011;11249;52.468;13.776;2022-12-07T07:42:46;57.28;;;27.52;;
22166;SDS011;11249;52.468;13.776;2022-12-07T07:45:14;62.30;;;29.58;;
22166;SDS011;11249;52.468;13.776;2022-12-07T07:47:41;56.78;;;25.15;;
22166;SDS011;11249;52.468;13.776;2022-12-07T07:50:08;59.05;;;26.83;;
22166;SDS011;11249;52.468;13.776;2022-12-07T07:52:35;58.83;;;27.45;;
22166;SDS011;11249;52.468;13.776;2022-12-07T07:55:02;59.53;;;28.45;;
22166;SDS011;11249;52.468;13.776;2022-12-07T07:57:29;58.53;;;28.33;;
22166;SDS011;11249;52.468;13.776;2022-12-07T07:59:56;63.67;;;28.63;;
22166;SDS011;11249;52.468;13.776;2022-12-07T08:02:23;64.25;;;28.77;;
22166;SDS011;11249;52.468;13.776;2022-12-07T08:04:49;55.22;;;27.33;;
22166;SDS011;11249;52.468;13.776;2022-12-07T08:07:16;53.72;;;27.10;;
22166;SDS011;11249;52.468;13.776;2022-12-07T08:09:43;57.10;;;26.88;;
22166;SDS011;11249;52.468;13.776;2022-12-07T08:12:10;56.45;;;26.90;;
22166;SDS011;11249;52.468;13.776;2022-12-07T08:14:36;52.33;;;25.15;;
22166;SDS011;11249;52.468;13.776;2022-12-07T08:17:03;52.65;;;26.70;;
22166;SDS011;11249;52.468;13.776;2022-12-07T08:19:30;51.67;;;24.73;;
22166;SDS011;11249;52.468;13.776;2022-12-07T08:21:57;44.05;;;22.15;;
22166;SDS011;11249;52.468;13.776;2022-12-07T08:24:23;48.72;;;23.05;;
22166;SDS011;11249;52.468;13.776;2022-12-07T08:26:51;42.75;;;21.42;;
22166;SDS011;11249;52.468;13.776;2022-12-07T08:29:17;39.15;;;19.85;;
22166;SDS011;11249;52.468;13.776;2022-12-07T08:31:44;33.78;;;19.05;;
22166;SDS011;11249;52.468;13.776;2022-12-07T08:34:11;43.22;;;19.88;;
22166;SDS011;11249;52.468;13.776;2022-12-07T08:36:39;32.53;;;16.98;;
22166;SDS011;11249;52.468;13.776;2022-12-07T08:39:06;28.75;;;17.08;;
22166;SDS011;11249;52.468;13.776;2022-12-07T08:41:53;26.73;;;15.95;;
22166;SDS011;11249;52.468;13.776;2022-12-07T08:44:19;22.98;;;14.35;;
22166;SDS011;11249;52.468;13.776;2022-12-07T08:46:47;26.20;;;14.48;;
22166;SDS011;11249;52.468;13.776;2022-12-07T08:49:19;22.13;;;13.73;;
22166;SDS011;11249;52.468;13.776;2022-12-07T08:52:00;23.88;;;13.25;;
22166;SDS011;11249;52.468;13.776;2022-12-07T08:54:29;19.58;;;12.90;;
22166;SDS011;11249;52.468;13.776;2022-12-07T08:56:55;20.02;;;12.60;;
22166;SDS011;11249;52.468;13.776;2022-12-07T08:59:25;22.27;;;12.90;;
22166;SDS011;11249;52.468;13.776;2022-12-07T09:01:52;18.77;;;11.50;;
22166;SDS011;11249;52.468;13.776;2022-12-07T09:04:19;15.88;;;9.45;;
22166;SDS011;11249;52.468;13.776;2022-12-07T09:06:46;13.60;;;9.35;;
22166;SDS011;11249;52.468;13.776;2022-12-07T09:09:14;17.60;;;9.65;;
22166;SDS011;11249;52.468;13.776;2022-12-07T09:11:41;18.25;;;10.75;;
22166;SDS011;11249;52.468;13.776;2022-12-07T09:14:08;13.43;;;8.95;;
22166;SDS011;11249;52.468;13.776;2022-12-07T09:16:35;13.45;;;8.98;;
22166;SDS011;11249;52.468;13.776;2022-12-07T09:19:02;14.98;;;8.55;;
22166;SDS011;11249;52.468;13.776;2022-12-07T09:21:28;11.35;;;7.32;;
22166;SDS011;11249;52.468;13.776;2022-12-07T09:23:55;13.02;;;6.82;;
22166;SDS011;11249;52.468;13.776;2022-12-07T09:26:22;12.88;;;7.63;;
22166;SDS011;11249;52.468;13.776;2022-12-07T09:28:49;11.02;;;7.50;;
22166;SDS011;11249;52.468;13.776;2022-12-07T09:31:16;11.63;;;7.45;;
22166;SDS011;11249;52.468;13.776;2022-12-07T09:33:55;12.30;;;6.88;;
22166;SDS011;11249;52.468;13.776;2022-12-07T09:36:23;12.45;;;6.80;;
22166;SDS011;11249;52.468;13.776;2022-12-07T09:38:51;7.00;;;5.28;;
22166;SDS011;11249;52.468;13.776;2022-12-07T09:41:18;8.65;;;4.95;;
22166;SDS011;11249;52.468;13.776;2022-12-07T09:43:47;8.63;;;5.15;;
22166;SDS011;11249;52.468;13.776;2022-12-07T09:46:14;5.50;;;4.60;;
22166;SDS011;11249;52.468;13.776;2022-12-07T09:48:44;5.70;;;4.20;;
22166;SDS011;11249;52.468;13.776;2022-12-07T09:51:18;5.82;;;4.18;;
22166;SDS011;11249;52.468;13.776;2022-12-07T09:53:50;6.40;;;3.60;;
22166;SDS011;11249;52.468;13.776;2022-12-07T09:56:22;3.75;;;2.92;;
22166;SDS011;11249;52.468;13.776;2022-12-07T09:58:51;3.97;;;2.53;;
22166;SDS011;11249;52.468;13.776;2022-12-07T10:01:27;5.80;;;2.63;;
22166;SDS011;11249;52.468;13.776;2022-12-07T10:06:33;2.33;;;1.80;;
22166;SDS011;11249;52.468;13.776;2022-12-07T10:08:59;2.20;;;2.00;;
22166;SDS011;11249;52.468;13.776;2022-12-07T10:11:26;3.72;;;2.53;;
22166;SDS011;11249;52.468;13.776;2022-12-07T10:13:53;5.95;;;3.22;;
22166;SDS011;11249;52.468;13.776;2022-12-07T10:18:50;3.55;;;3.15;;
22166;SDS011;11249;52.468;13.776;2022-12-07T10:21:18;7.18;;;2.80;;
22166;SDS011;11249;52.468;13.776;2022-12-07T10:24:03;5.15;;;2.65;;
22166;SDS011;11249;52.468;13.776;2022-12-07T10:26:32;3.63;;;2.85;;
22166;SDS011;11249;52.468;13.776;2022-12-07T10:29:14;3.30;;;2.55;;
22166;SDS011;11249;52.468;13.776;2022-12-07T10:31:48;2.97;;;2.67;;
22166;SDS011;11249;52.468;13.776;2022-12-07T10:34:23;3.03;;;2.60;;
22166;SDS011;11249;52.468;13.776;2022-12-07T10:39:45;5.35;;;3.10;;
22166;SDS011;11249;52.468;13.776;2022-12-07T10:45:12;3.13;;;2.83;;
22166;SDS011;11249;52.468;13.776;2022-12-07T10:47:45;3.05;;;2.50;;
22166;SDS011;11249;52.468;13.776;2022-12-07T10:50:41;6.18;;;2.50;;
22166;SDS011;11249;52.468;13.776;2022-12-07T10:56:26;2.80;;;2.60;;
22166;SDS011;11249;52.468;13.776;2022-12-07T10:59:21;3.88;;;2.22;;
22166;SDS011;11249;52.468;13.776;2022-12-07T11:01:54;4.70;;;2.28;;
22166;SDS011;11249;52.468;13.776;2022-12-07T11:04:36;4.60;;;2.10;;
22166;SDS011;11249;52.468;13.776;2022-12-07T11:07:38;2.05;;;1.85;;
22166;SDS011;11249;52.468;13.776;2022-12-07T11:10:21;4.75;;;2.63;;
22166;SDS011;11249;52.468;13.776;2022-12-07T11:13:02;4.00;;;2.42;;
22166;SDS011;11249;52.468;13.776;2022-12-07T11:21:41;5.07;;;2.47;;
22166;SDS011;11249;52.468;13.776;2022-12-07T11:27:16;3.60;;;2.15;;
22166;SDS011;11249;52.468;13.776;2022-12-07T11:30:18;2.47;;;2.15;;
22166;SDS011;11249;52.468;13.776;2022-12-07T11:32:53;4.53;;;2.72;;
22166;SDS011;11249;52.468;13.776;2022-12-07T11:35:40;4.78;;;2.83;;
22166;SDS011;11249;52.468;13.776;2022-12-07T11:38:22;2.88;;;2.50;;
22166;SDS011;11249;52.468;13.776;2022-12-07T11:40:56;3.80;;;2.45;;
22166;SDS011;11249;52.468;13.776;2022-12-07T11:43:56;6.47;;;2.97;;
22166;SDS011;11249;52.468;13.776;2022-12-07T11:46:45;7.47;;;3.20;;
22166;SDS011;11249;52.468;13.776;2022-12-07T11:52:06;9.55;;;2.75;;
22166;SDS011;11249;52.468;13.776;2022-12-07T11:54:43;4.35;;;2.58;;
22166;SDS011;11249;52.468;13.776;2022-12-07T11:57:18;5.97;;;4.50;;
22166;SDS011;11249;52.468;13.776;2022-12-07T11:59:52;4.72;;;2.78;;
22166;SDS011;11249;52.468;13.776;2022-12-07T12:02:43;4.15;;;3.00;;
22166;SDS011;11249;52.468;13.776;2022-12-07T12:05:20;5.10;;;2.75;;
22166;SDS011;11249;52.468;13.776;2022-12-07T12:07:59;5.63;;;3.03;;
22166;SDS011;11249;52.468;13.776;2022-12-07T12:17:00;4.35;;;3.65;;
22166;SDS011;11249;52.468;13.776;2022-12-07T12:23:00;5.13;;;3.95;;
22166;SDS011;11249;52.468;13.776;2022-12-07T12:25:52;8.07;;;3.50;;
22166;SDS011;11249;52.468;13.776;2022-12-07T12:28:35;7.32;;;3.65;;
22166;SDS011;11249;52.468;13.776;2022-12-07T12:31:29;7.38;;;3.50;;
22166;SDS011;11249;52.468;13.776;2022-12-07T12:34:00;7.55;;;4.05;;
22166;SDS011;11249;52.468;13.776;2022-12-07T12:39:09;4.95;;;3.42;;
22166;SDS011;11249;52.468;13.776;2022-12-07T12:47:03;9.18;;;3.78;;
22166;SDS011;11249;52.468;13.776;2022-12-07T12:50:34;9.20;;;3.63;;
22166;SDS011;11249;52.468;13.776;2022-12-07T12:52:52;7.15;;;3.85;;
22166;SDS011;11249;52.468;13.776;2022-12-07T13:00:45;6.20;;;3.22;;
22166;SDS011;11249;52.468;13.776;2022-12-07T13:03:26;9.00;;;4.03;;
22166;SDS011;11249;52.468;13.776;2022-12-07T13:08:53;5.78;;;3.40;;
22166;SDS011;11249;52.468;13.776;2022-12-07T13:11:32;6.93;;;3.58;;
22166;SDS011;11249;52.468;13.776;2022-12-07T13:22:43;3.85;;;2.70;;
22166;SDS011;11249;52.468;13.776;2022-12-07T13:25:18;11.10;;;2.80;;
22166;SDS011;11249;52.468;13.776;2022-12-07T13:27:50;5.43;;;2.75;;
22166;SDS011;11249;52.468;13.776;2022-12-07T13:30:38;7.55;;;2.90;;
22166;SDS011;11249;52.468;13.776;2022-12-07T13:33:27;10.60;;;2.92;;
22166;SDS011;11249;52.468;13.776;2022-12-07T13:35:55;7.85;;;3.40;;
22166;SDS011;11249;52.468;13.776;2022-12-07T13:38:29;3.70;;;2.35;;
22166;SDS011;11249;52.468;13.776;2022-12-07T13:41:20;7.65;;;2.80;;
22166;SDS011;11249;52.468;13.776;2022-12-07T13:43:52;8.20;;;2.85;;
22166;SDS011;11249;52.468;13.776;2022-12-07T13:46:27;9.77;;;3.15;;
22166;SDS011;11249;52.468;13.776;2022-12-07T13:49:24;12.10;;;3.53;;
22166;SDS011;11249;52.468;13.776;2022-12-07T13:51:54;8.13;;;3.13;;
22166;SDS011;11249;52.468;13.776;2022-12-07T13:54:32;10.73;;;3.03;;
22166;SDS011;11249;52.468;13.776;2022-12-07T13:57:00;9.60;;;3.28;;
22166;SDS011;11249;52.468;13.776;2022-12-07T13:59:27;10.80;;;3.40;;
22166;SDS011;11249;52.468;13.776;2022-12-07T14:01:56;8.32;;;3.58;;
22166;SDS011;11249;52.468;13.776;2022-12-07T14:04:34;7.88;;;3.05;;
22166;SDS011;11249;52.468;13.776;2022-12-07T14:09:55;8.73;;;3.25;;
22166;SDS011;11249;52.468;13.776;2022-12-07T14:12:27;11.25;;;2.92;;
22166;SDS011;11249;52.468;13.776;2022-12-07T14:14:55;10.32;;;2.80;;
22166;SDS011;11249;52.468;13.776;2022-12-07T14:17:25;9.23;;;3.40;;
22166;SDS011;11249;52.468;13.776;2022-12-07T14:19:59;7.95;;;3.60;;
22166;SDS011;11249;52.468;13.776;2022-12-07T14:27:46;5.47;;;2.50;;
22166;SDS011;11249;52.468;13.776;2022-12-07T14:30:25;7.90;;;2.83;;
22166;SDS011;11249;52.468;13.776;2022-12-07T14:32:58;6.95;;;2.75;;
22166;SDS011;11249;52.468;13.776;2022-12-07T14:35:30;7.82;;;3.17;;
22166;SDS011;11249;52.468;13.776;2022-12-07T14:37:58;8.80;;;2.58;;
22166;SDS011;11249;52.468;13.776;2022-12-07T14:40:26;9.68;;;3.08;;
22166;SDS011;11249;52.468;13.776;2022-12-07T14:42:56;7.63;;;2.03;;
22166;SDS011;11249;52.468;13.776;2022-12-07T14:45:28;3.60;;;1.73;;
22166;SDS011;11249;52.468;13.776;2022-12-07T14:47:55;6.88;;;2.30;;
22166;SDS011;11249;52.468;13.776;2022-12-07T14:50:43;3.13;;;2.13;;
22166;SDS011;11249;52.468;13.776;2022-12-07T14:53:34;13.10;;;2.20;;
22166;SDS011;11249;52.468;13.776;2022-12-07T14:56:03;7.68;;;2.85;;
22166;SDS011;11249;52.468;13.776;2022-12-07T14:58:31;4.03;;;2.30;;
22166;SDS011;11249;52.468;13.776;2022-12-07T15:00:59;10.45;;;2.88;;
22166;SDS011;11249;52.468;13.776;2022-12-07T15:03:26;6.38;;;2.00;;
22166;SDS011;11249;52.468;13.776;2022-12-07T15:05:53;5.50;;;2.30;;
22166;SDS011;11249;52.468;13.776;2022-12-07T15:08:19;6.28;;;2.58;;
22166;SDS011;11249;52.468;13.776;2022-12-07T15:10:46;9.82;;;2.60;;
22166;SDS011;11249;52.468;13.776;2022-12-07T15:13:13;12.25;;;2.92;;
22166;SDS011;11249;52.468;13.776;2022-12-07T15:15:58;8.85;;;2.50;;
22166;SDS011;11249;52.468;13.776;2022-12-07T15:18:26;4.43;;;2.40;;
22166;SDS011;11249;52.468;13.776;2022-12-07T15:20:53;8.85;;;2.75;;
22166;SDS011;11249;52.468;13.776;2022-12-07T15:23:20;5.95;;;2.80;;
22166;SDS011;11249;52.468;13.776;2022-12-07T15:25:47;4.90;;;2.65;;
22166;SDS011;11249;52.468;13.776;2022-12-07T15:28:15;9.63;;;2.55;;
22166;SDS011;11249;52.468;13.776;2022-12-07T15:30:42;10.07;;;2.80;;
22166;SDS011;11249;52.468;13.776;2022-12-07T15:33:10;6.03;;;2.30;;
22166;SDS011;11249;52.468;13.776;2022-12-07T15:35:47;6.25;;;2.35;;
22166;SDS011;11249;52.468;13.776;2022-12-07T15:38:13;9.18;;;2.78;;
22166;SDS011;11249;52.468;13.776;2022-12-07T15:40:40;11.15;;;2.72;;
22166;SDS011;11249;52.468;13.776;2022-12-07T15:43:10;9.63;;;2.67;;
22166;SDS011;11249;52.468;13.776;2022-12-07T15:45:56;8.80;;;2.90;;
22166;SDS011;11249;52.468;13.776;2022-12-07T15:48:23;6.47;;;3.03;;
22166;SDS011;11249;52.468;13.776;2022-12-07T15:51:00;8.02;;;2.97;;
22166;SDS011;11249;52.468;13.776;2022-12-07T15:53:33;15.20;;;3.35;;
22166;SDS011;11249;52.468;13.776;2022-12-07T15:56:00;6.63;;;2.30;;
22166;SDS011;11249;52.468;13.776;2022-12-07T15:58:27;8.25;;;2.58;;
22166;SDS011;11249;52.468;13.776;2022-12-07T16:00:54;11.57;;;3.00;;
22166;SDS011;11249;52.468;13.776;2022-12-07T16:03:21;8.27;;;2.95;;
22166;SDS011;11249;52.468;13.776;2022-12-07T16:05:51;10.60;;;4.40;;
22166;SDS011;11249;52.468;13.776;2022-12-07T16:08:18;10.23;;;3.10;;
22166;SDS011;11249;52.468;13.776;2022-12-07T16:10:45;6.97;;;2.88;;
22166;SDS011;11249;52.468;13.776;2022-12-07T16:13:12;8.00;;;3.00;;
22166;SDS011;11249;52.468;13.776;2022-12-07T16:15:42;5.85;;;2.70;;
22166;SDS011;11249;52.468;13.776;2022-12-07T16:18:09;5.35;;;2.70;;
22166;SDS011;11249;52.468;13.776;2022-12-07T16:20:36;8.35;;;3.10;;
22166;SDS011;11249;52.468;13.776;2022-12-07T16:23:03;5.82;;;2.88;;
22166;SDS011;11249;52.468;13.776;2022-12-07T16:25:29;7.97;;;3.20;;
22166;SDS011;11249;52.468;13.776;2022-12-07T16:27:56;13.15;;;3.63;;